createdAt,value
2019-03-18T00:00:07.474Z,7.20
2019-03-18T00:02:37.464Z,9.40
2019-03-18T00:05:06.767Z,10.83
2019-03-18T00:07:36.028Z,7.93
2019-03-18T00:10:05.666Z,7.07
2019-03-18T00:12:35.069Z,9.33
2019-03-18T00:15:04.970Z,8.57
2019-03-18T00:17:34.199Z,6.50
2019-03-18T00:20:03.546Z,11.80
2019-03-18T00:22:32.840Z,17.33
2019-03-18T00:25:02.797Z,9.57
2019-03-18T00:27:32.075Z,13.20
2019-03-18T00:30:01.414Z,11.57
2019-03-18T00:32:30.715Z,7.10
2019-03-18T00:35:00.005Z,8.93
2019-03-18T00:37:29.324Z,19.97
2019-03-18T00:39:58.644Z,6.80
2019-03-18T00:42:27.902Z,9.63
2019-03-18T00:44:57.189Z,11.40
2019-03-18T00:47:26.794Z,8.40
2019-03-18T00:49:56.076Z,14.77
2019-03-18T00:52:25.400Z,15.70
2019-03-18T00:54:55.001Z,9.90
2019-03-18T00:57:24.287Z,6.23
2019-03-18T00:59:53.569Z,14.73
2019-03-18T01:02:23.397Z,10.03
2019-03-18T01:04:52.677Z,5.80
2019-03-18T01:07:21.966Z,7.30
2019-03-18T01:09:51.605Z,7.23
2019-03-18T01:12:20.894Z,5.93
2019-03-18T01:14:50.206Z,6.67
2019-03-18T01:17:19.504Z,9.90
2019-03-18T01:19:49.665Z,5.47
2019-03-18T01:22:19.342Z,17.07
2019-03-18T01:24:48.606Z,9.87
2019-03-18T01:27:18.401Z,12.27
2019-03-18T01:29:47.695Z,6.60
2019-03-18T01:32:16.994Z,5.83
2019-03-18T01:34:46.304Z,5.13
2019-03-18T01:37:15.978Z,7.27
2019-03-18T01:39:45.279Z,5.50
2019-03-18T01:42:16.863Z,6.77
2019-03-18T01:44:46.857Z,8.47
2019-03-18T01:47:16.603Z,4.67
2019-03-18T01:49:45.915Z,5.17
2019-03-18T01:52:15.268Z,5.40
2019-03-18T01:54:44.586Z,3.90
2019-03-18T01:57:13.880Z,7.20
2019-03-18T01:59:43.268Z,4.27
2019-03-18T02:02:12.553Z,3.53
2019-03-18T02:04:41.868Z,7.70
2019-03-18T02:07:11.529Z,4.87
2019-03-18T02:09:41.094Z,6.00
2019-03-18T02:12:10.384Z,5.13
2019-03-18T02:14:40.037Z,10.73
2019-03-18T02:17:09.701Z,6.87
2019-03-18T02:19:38.981Z,5.07
2019-03-18T02:22:08.297Z,3.20
2019-03-18T02:24:37.653Z,3.43
2019-03-18T02:27:07.019Z,5.43
2019-03-18T02:29:36.630Z,4.10
2019-03-18T02:32:05.926Z,4.10
2019-03-18T02:34:35.289Z,6.90
2019-03-18T02:37:04.669Z,5.80
2019-03-18T02:39:34.042Z,4.00
2019-03-18T02:42:03.639Z,5.20
2019-03-18T02:44:33.003Z,4.47
2019-03-18T02:47:02.389Z,4.07
2019-03-18T02:49:31.994Z,2.70
2019-03-18T02:52:01.685Z,5.23
2019-03-18T02:54:31.033Z,5.97
2019-03-18T02:57:00.389Z,5.97
2019-03-18T02:59:29.693Z,7.43
2019-03-18T03:01:59.957Z,6.80
2019-03-18T03:04:29.165Z,8.17
2019-03-18T03:06:58.495Z,5.83
2019-03-18T03:09:28.104Z,3.77
2019-03-18T03:11:57.465Z,4.70
2019-03-18T03:14:27.166Z,10.27
2019-03-18T03:16:56.537Z,6.60
2019-03-18T03:19:26.261Z,10.10
2019-03-18T03:21:56.503Z,4.10
2019-03-18T03:24:25.901Z,4.40
2019-03-18T03:26:55.275Z,9.03
2019-03-18T03:29:24.573Z,8.73
2019-03-18T03:31:53.894Z,5.27
2019-03-18T03:34:23.177Z,4.13
2019-03-18T03:36:52.551Z,3.63
2019-03-18T03:39:21.986Z,4.80
2019-03-18T03:41:51.384Z,10.13
2019-03-18T03:44:20.701Z,4.63
2019-03-18T03:46:50.368Z,8.43
2019-03-18T03:49:19.693Z,4.57
2019-03-18T03:51:49.132Z,9.20
2019-03-18T03:54:18.939Z,3.20
2019-03-18T03:56:48.356Z,7.77
2019-03-18T03:59:18.285Z,3.83
2019-03-18T04:01:47.597Z,2.70
2019-03-18T04:04:16.942Z,3.63
2019-03-18T04:06:46.400Z,3.87
2019-03-18T04:09:16.025Z,3.43
2019-03-18T04:11:45.308Z,7.60
2019-03-18T04:14:14.643Z,2.23
2019-03-18T04:16:55.797Z,3.00
2019-03-18T04:19:15.054Z,4.53
2019-03-18T04:21:44.405Z,6.73
2019-03-18T04:24:13.701Z,3.80
2019-03-18T04:26:45.532Z,3.20
2019-03-18T04:29:14.849Z,5.30
2019-03-18T04:31:44.195Z,4.53
2019-03-18T04:34:13.550Z,8.13
2019-03-18T04:36:42.899Z,5.63
2019-03-18T04:39:12.332Z,5.47
2019-03-18T04:41:41.636Z,4.90
2019-03-18T04:44:10.969Z,4.93
2019-03-18T04:46:40.702Z,12.30
2019-03-18T04:49:10.039Z,4.57
2019-03-18T04:51:39.793Z,7.07
2019-03-18T04:54:09.089Z,8.93
2019-03-18T04:56:38.379Z,6.37
2019-03-18T04:59:07.660Z,5.37
2019-03-18T05:01:36.978Z,5.50
2019-03-18T05:04:06.146Z,9.60
2019-03-18T05:06:35.491Z,9.20
2019-03-18T05:09:05.792Z,6.33
2019-03-18T05:11:35.055Z,11.23
2019-03-18T05:14:06.275Z,13.00
2019-03-18T05:16:35.578Z,6.43
2019-03-18T05:19:04.929Z,13.90
2019-03-18T05:21:34.279Z,8.53
2019-03-18T05:24:03.609Z,14.20
2019-03-18T05:26:33.317Z,8.00
2019-03-18T05:29:02.657Z,10.60
2019-03-18T05:31:32.338Z,12.37
2019-03-18T05:34:01.709Z,7.13
2019-03-18T05:36:32.168Z,13.53
2019-03-18T05:39:01.669Z,18.70
2019-03-18T05:41:31.007Z,11.90
2019-03-18T05:44:00.391Z,10.30
2019-03-18T05:46:29.722Z,9.23
2019-03-18T05:48:59.006Z,10.00
2019-03-18T05:51:28.630Z,13.77
2019-03-18T05:53:58.506Z,13.73
2019-03-18T05:56:27.952Z,10.90
2019-03-18T05:58:57.436Z,13.83
2019-03-18T06:01:26.785Z,17.80
2019-03-18T06:03:56.053Z,11.53
2019-03-18T06:06:25.473Z,12.70
2019-03-18T06:08:54.858Z,15.20
2019-03-18T06:11:24.538Z,16.03
2019-03-18T06:13:56.415Z,19.17
2019-03-18T06:16:24.981Z,13.20
2019-03-18T06:18:54.324Z,17.40
2019-03-18T06:21:23.682Z,10.93
2019-03-18T06:23:54.125Z,13.63
2019-03-18T06:26:23.419Z,13.70
2019-03-18T06:28:52.700Z,13.87
2019-03-18T06:31:21.989Z,11.37
2019-03-18T06:33:51.318Z,12.67
2019-03-18T06:36:20.978Z,12.83
2019-03-18T06:38:50.685Z,13.60
2019-03-18T06:41:20.011Z,15.50
2019-03-18T06:43:49.352Z,15.57
2019-03-18T06:46:19.458Z,10.20
2019-03-18T06:48:48.800Z,12.10
2019-03-18T06:51:18.206Z,32.87
2019-03-18T06:53:47.555Z,15.37
2019-03-18T06:56:17.335Z,15.27
2019-03-18T06:58:46.965Z,14.73
2019-03-18T07:01:16.202Z,17.77
2019-03-18T07:03:45.553Z,15.43
2019-03-18T07:06:14.858Z,13.83
2019-03-18T07:08:44.135Z,12.73
2019-03-18T07:11:13.501Z,12.10
2019-03-18T07:13:43.157Z,16.30
2019-03-18T07:16:12.510Z,14.43
2019-03-18T07:18:42.254Z,16.57
2019-03-18T07:21:14.616Z,13.50
2019-03-18T07:23:43.355Z,16.50
2019-03-18T07:26:12.669Z,13.43
2019-03-18T07:28:41.986Z,17.13
2019-03-18T07:31:11.279Z,17.73
2019-03-18T07:33:40.651Z,20.70
2019-03-18T07:36:09.977Z,17.07
2019-03-18T07:38:39.289Z,13.13
2019-03-18T07:41:08.644Z,11.87
2019-03-18T07:43:37.938Z,14.87
2019-03-18T07:46:07.181Z,17.30
2019-03-18T07:48:36.502Z,19.63
2019-03-18T07:51:05.886Z,20.23
2019-03-18T07:53:35.190Z,26.13
2019-03-18T07:56:04.515Z,23.03
2019-03-18T07:58:33.930Z,14.70
2019-03-18T08:01:03.378Z,15.40
2019-03-18T08:03:36.299Z,22.00
2019-03-18T08:06:04.515Z,18.27
2019-03-18T08:08:33.925Z,17.77
2019-03-18T08:11:03.467Z,19.17
2019-03-18T08:13:32.798Z,16.83
2019-03-18T08:16:02.104Z,21.90
2019-03-18T08:18:42.789Z,26.37
2019-03-18T08:21:03.284Z,18.20
2019-03-18T08:23:32.631Z,17.97
2019-03-18T08:26:01.976Z,25.50
2019-03-18T08:28:31.272Z,17.53
2019-03-18T08:31:00.872Z,20.53
2019-03-18T08:33:30.134Z,19.10
2019-03-18T08:35:59.517Z,25.83
2019-03-18T08:38:28.892Z,17.70
2019-03-18T08:40:58.193Z,21.53
2019-03-18T08:43:27.593Z,15.17
2019-03-18T08:45:56.893Z,17.73
2019-03-18T08:48:26.244Z,18.07
2019-03-18T08:50:55.558Z,16.90
2019-03-18T08:53:24.873Z,15.80
2019-03-18T08:55:54.185Z,22.97
2019-03-18T08:58:23.521Z,17.50
2019-03-18T09:00:52.830Z,15.47
2019-03-18T09:03:22.172Z,24.30
2019-03-18T09:05:51.469Z,20.67
2019-03-18T09:08:20.786Z,16.10
2019-03-18T09:10:50.993Z,15.60
2019-03-18T09:13:20.325Z,15.93
2019-03-18T09:15:50.022Z,16.20
2019-03-18T09:18:19.357Z,12.00
2019-03-18T09:20:48.787Z,17.30
2019-03-18T09:23:18.113Z,13.30
2019-03-18T09:25:48.445Z,12.73
2019-03-18T09:28:18.121Z,11.77
2019-03-18T09:30:47.469Z,12.23
2019-03-18T09:33:16.762Z,9.90
2019-03-18T09:35:46.008Z,10.70
2019-03-18T09:38:15.320Z,10.53
2019-03-18T09:40:44.596Z,7.00
2019-03-18T09:43:14.221Z,10.37
2019-03-18T09:45:43.530Z,7.67
2019-03-18T09:48:12.939Z,12.40
2019-03-18T09:50:42.206Z,6.20
2019-03-18T09:53:11.503Z,7.90
2019-03-18T09:55:40.826Z,11.63
2019-03-18T09:58:10.063Z,13.23
2019-03-18T10:00:39.397Z,12.03
2019-03-18T10:03:08.756Z,6.80
2019-03-18T10:05:38.059Z,8.13
2019-03-18T10:08:07.344Z,9.97
2019-03-18T10:10:36.661Z,11.03
2019-03-18T10:13:06.013Z,7.83
2019-03-18T10:15:35.378Z,13.60
2019-03-18T10:18:04.696Z,9.17
2019-03-18T10:20:34.112Z,11.03
2019-03-18T10:23:03.459Z,6.93
2019-03-18T10:25:32.729Z,9.90
2019-03-18T10:28:02.047Z,5.93
2019-03-18T10:30:33.908Z,8.97
2019-03-18T10:33:02.965Z,7.90
2019-03-18T10:35:32.336Z,7.03
2019-03-18T10:38:01.667Z,7.83
2019-03-18T10:40:31.007Z,10.73
2019-03-18T10:43:00.312Z,10.97
2019-03-18T10:45:29.664Z,3.73
2019-03-18T10:47:58.965Z,4.23
2019-03-18T10:50:28.330Z,7.47
2019-03-18T10:52:57.783Z,5.80
2019-03-18T10:55:29.567Z,6.30
2019-03-18T10:57:58.886Z,11.00
2019-03-18T11:00:28.333Z,8.53
2019-03-18T11:02:59.487Z,5.73
2019-03-18T11:05:28.940Z,6.00
2019-03-18T11:07:58.686Z,6.83
2019-03-18T11:10:28.002Z,14.57
2019-03-18T11:12:57.367Z,5.57
2019-03-18T11:15:26.680Z,6.53
2019-03-18T11:17:55.960Z,13.80
2019-03-18T11:20:25.417Z,17.10
2019-03-18T11:22:54.704Z,8.90
2019-03-18T11:25:24.545Z,12.93
2019-03-18T11:27:53.866Z,6.77
2019-03-18T11:30:23.209Z,4.93
2019-03-18T11:32:52.514Z,6.33
2019-03-18T11:35:21.774Z,5.27
2019-03-18T11:37:51.063Z,5.57
2019-03-18T11:40:20.498Z,4.13
2019-03-18T11:42:49.796Z,7.90
2019-03-18T11:45:19.435Z,4.00
2019-03-18T11:47:48.865Z,7.40
2019-03-18T11:50:18.486Z,7.83
2019-03-18T11:52:47.802Z,13.77
2019-03-18T11:55:17.216Z,4.27
2019-03-18T11:57:46.509Z,8.00
2019-03-18T12:00:16.583Z,4.60
2019-03-18T12:03:05.080Z,6.67
2019-03-18T12:05:34.358Z,3.73
2019-03-18T12:08:03.675Z,7.43
2019-03-18T12:10:33.441Z,6.57
2019-03-18T12:13:02.789Z,7.23
2019-03-18T12:15:32.401Z,6.33
2019-03-18T12:18:01.882Z,11.87
2019-03-18T12:20:33.164Z,6.53
2019-03-18T12:23:02.213Z,8.97
2019-03-18T12:25:33.715Z,8.63
2019-03-18T12:28:04.991Z,19.30
2019-03-18T12:30:33.614Z,11.80
2019-03-18T12:33:02.943Z,30.67
2019-03-18T12:35:32.280Z,8.87
2019-03-18T12:38:01.619Z,9.63
2019-03-18T12:40:30.904Z,8.67
2019-03-18T12:43:00.250Z,5.10
2019-03-18T12:45:29.586Z,13.70
2019-03-18T12:48:00.558Z,4.93
2019-03-18T12:50:49.019Z,9.07
2019-03-18T12:53:00.878Z,8.10
2019-03-18T12:55:31.869Z,4.93
2019-03-18T12:58:01.171Z,5.47
2019-03-18T13:00:30.500Z,7.60
2019-03-18T13:02:59.819Z,6.93
2019-03-18T13:05:29.234Z,8.27
2019-03-18T13:07:58.632Z,9.70
2019-03-18T13:10:27.960Z,8.00
2019-03-18T13:12:57.385Z,5.67
2019-03-18T13:15:26.693Z,8.53
2019-03-18T13:17:56.007Z,5.17
2019-03-18T13:20:25.406Z,9.43
2019-03-18T13:22:54.745Z,3.07
2019-03-18T13:25:24.038Z,3.70
2019-03-18T13:27:53.657Z,4.93
2019-03-18T13:30:22.976Z,7.73
2019-03-18T13:32:52.339Z,5.80
2019-03-18T13:35:22.067Z,3.90
2019-03-18T13:37:51.425Z,3.70
2019-03-18T13:40:20.824Z,4.63
2019-03-18T13:42:50.023Z,6.57
2019-03-18T13:45:19.393Z,12.33
2019-03-18T13:47:48.736Z,8.10
2019-03-18T13:50:17.989Z,6.70
2019-03-18T13:52:47.268Z,7.40
2019-03-18T13:55:16.691Z,3.80
2019-03-18T13:57:45.993Z,7.43
2019-03-18T14:00:16.128Z,10.97
2019-03-18T14:02:45.477Z,6.50
2019-03-18T14:05:15.117Z,7.70
2019-03-18T14:07:44.449Z,4.80
2019-03-18T14:10:14.581Z,11.27
2019-03-18T14:12:43.937Z,12.07
2019-03-18T14:15:14.556Z,4.93
2019-03-18T14:17:44.169Z,9.00
2019-03-18T14:20:14.720Z,6.20
2019-03-18T14:22:44.059Z,5.33
2019-03-18T14:25:13.478Z,4.90
2019-03-18T14:27:42.900Z,4.70
2019-03-18T14:30:14.606Z,47.03
2019-03-18T14:32:47.244Z,48.90
2019-03-18T14:35:17.014Z,72.37
2019-03-18T14:37:46.381Z,123.70
2019-03-18T14:40:15.755Z,45.47
2019-03-18T14:42:45.088Z,41.07
2019-03-18T14:45:16.384Z,21.07
2019-03-18T14:47:46.124Z,9.47
2019-03-18T14:50:15.727Z,8.33
2019-03-18T14:52:44.993Z,7.93
2019-03-18T14:55:14.404Z,9.80
2019-03-18T14:57:43.771Z,12.67
2019-03-18T15:00:16.137Z,9.23
2019-03-18T15:02:45.545Z,7.57
2019-03-18T15:05:15.083Z,3.90
2019-03-18T15:07:44.744Z,7.13
2019-03-18T15:10:14.051Z,4.90
2019-03-18T15:12:43.492Z,6.37
2019-03-18T15:15:14.448Z,3.83
2019-03-18T15:17:43.742Z,7.10
2019-03-18T15:20:13.097Z,4.63
2019-03-18T15:22:42.407Z,10.73
2019-03-18T15:25:16.747Z,3.10
2019-03-18T15:27:46.049Z,7.30
2019-03-18T15:30:17.128Z,6.63
2019-03-18T15:32:46.604Z,5.23
2019-03-18T15:35:16.075Z,3.10
2019-03-18T15:37:45.401Z,7.77
2019-03-18T15:40:15.956Z,4.57
2019-03-18T15:42:45.345Z,6.90
2019-03-18T15:45:15.678Z,6.73
2019-03-18T15:47:45.016Z,4.53
2019-03-18T15:50:15.818Z,4.00
2019-03-18T15:52:45.136Z,6.50
2019-03-18T15:55:14.741Z,2.60
2019-03-18T15:57:44.126Z,3.10
2019-03-18T16:00:15.369Z,6.63
2019-03-18T16:02:44.896Z,4.93
2019-03-18T16:05:14.329Z,3.07
2019-03-18T16:07:43.777Z,8.60
2019-03-18T16:10:15.859Z,2.30
2019-03-18T16:12:45.219Z,1.60
2019-03-18T16:15:14.949Z,5.20
2019-03-18T16:17:44.280Z,4.63
2019-03-18T16:20:14.450Z,3.30
2019-03-18T16:22:43.796Z,4.47
2019-03-18T16:25:13.407Z,3.00
2019-03-18T16:27:44.232Z,6.13
2019-03-18T16:30:22.155Z,5.10
2019-03-18T16:32:51.488Z,3.63
2019-03-18T16:35:20.807Z,4.23
2019-03-18T16:37:50.119Z,1.57
2019-03-18T16:40:22.199Z,1.73
2019-03-18T16:42:51.531Z,6.13
2019-03-18T16:45:20.933Z,3.90
2019-03-18T16:47:50.362Z,5.27
2019-03-18T16:50:19.741Z,5.63
2019-03-18T16:52:49.059Z,3.47
2019-03-18T16:55:18.414Z,3.50
2019-03-18T16:57:47.854Z,6.30
2019-03-18T17:00:18.379Z,11.63
2019-03-18T17:02:47.704Z,4.33
2019-03-18T17:05:20.777Z,6.53
2019-03-18T17:07:50.164Z,2.80
2019-03-18T17:10:19.549Z,8.10
2019-03-18T17:12:48.887Z,5.80
2019-03-18T17:15:18.222Z,4.80
2019-03-18T17:17:47.705Z,2.80
2019-03-18T17:20:16.941Z,8.60
2019-03-18T17:22:50.375Z,5.53
2019-03-18T17:25:18.189Z,4.70
2019-03-18T17:27:47.512Z,4.23
2019-03-18T17:30:17.967Z,3.20
2019-03-18T17:32:47.444Z,6.53
2019-03-18T17:35:16.769Z,6.43
2019-03-18T17:37:46.087Z,3.87
2019-03-18T17:40:15.559Z,2.93
2019-03-18T17:42:45.016Z,4.83
2019-03-18T17:45:17.290Z,3.90
2019-03-18T17:47:46.685Z,5.30
2019-03-18T17:50:17.690Z,4.20
2019-03-18T17:52:47.020Z,5.33
2019-03-18T17:55:19.204Z,5.93
2019-03-18T17:57:48.485Z,4.20
2019-03-18T18:00:22.251Z,8.00
2019-03-18T18:02:52.854Z,3.70
2019-03-18T18:05:22.509Z,6.10
2019-03-18T18:07:51.882Z,3.40
2019-03-18T18:10:21.131Z,5.00
2019-03-18T18:12:50.565Z,5.67
2019-03-18T18:15:19.920Z,5.70
2019-03-18T18:17:49.312Z,5.60
2019-03-18T18:20:18.815Z,6.03
2019-03-18T18:22:48.096Z,5.23
2019-03-18T18:25:17.747Z,9.10
2019-03-18T18:27:47.047Z,11.47
2019-03-18T18:30:16.412Z,3.87
2019-03-18T18:32:45.813Z,6.20
2019-03-18T18:35:15.100Z,5.77
2019-03-18T18:37:44.433Z,14.20
2019-03-18T18:40:13.878Z,10.43
2019-03-18T18:42:43.171Z,8.00
2019-03-18T18:45:12.874Z,3.97
2019-03-18T18:47:42.305Z,5.67
2019-03-18T18:50:11.878Z,9.77
2019-03-18T18:52:41.187Z,5.67
2019-03-18T18:55:10.823Z,5.90
2019-03-18T18:57:40.355Z,5.47
2019-03-18T19:00:12.273Z,5.43
2019-03-18T19:02:41.607Z,6.63
2019-03-18T19:05:11.368Z,4.23
2019-03-18T19:07:40.753Z,7.50
2019-03-18T19:10:11.125Z,10.60
2019-03-18T19:12:40.418Z,7.23
2019-03-18T19:15:12.730Z,3.70
2019-03-18T19:17:43.938Z,7.10
2019-03-18T19:20:13.788Z,6.47
2019-03-18T19:22:43.008Z,8.30
2019-03-18T19:25:13.310Z,5.60
2019-03-18T19:27:42.621Z,6.07
2019-03-18T19:30:17.034Z,8.13
2019-03-18T19:32:46.308Z,6.13
2019-03-18T19:35:15.952Z,11.10
2019-03-18T19:37:45.317Z,8.53
2019-03-18T19:40:14.741Z,5.80
2019-03-18T19:42:44.052Z,8.40
2019-03-18T19:45:13.619Z,14.13
2019-03-18T19:47:43.220Z,11.07
2019-03-18T19:50:14.649Z,5.40
2019-03-18T19:52:44.043Z,11.50
2019-03-18T19:55:13.488Z,7.73
2019-03-18T19:57:42.808Z,14.10
2019-03-18T20:00:14.648Z,5.90
2019-03-18T20:02:43.964Z,4.80
2019-03-18T20:05:19.114Z,4.30
2019-03-18T20:07:48.648Z,11.10
2019-03-18T20:10:17.998Z,5.00
2019-03-18T20:12:47.383Z,8.53
2019-03-18T20:15:17.316Z,6.23
2019-03-18T20:17:46.645Z,7.33
2019-03-18T20:20:16.236Z,4.53
2019-03-18T20:22:45.649Z,5.60
2019-03-18T20:25:14.962Z,9.73
2019-03-18T20:27:44.300Z,6.13
2019-03-18T20:30:14.919Z,6.40
2019-03-18T20:32:44.180Z,7.33
2019-03-18T20:35:13.965Z,12.47
2019-03-18T20:37:43.424Z,10.27
2019-03-18T20:40:14.059Z,15.40
2019-03-18T20:42:43.520Z,6.80
2019-03-18T20:45:14.222Z,12.93
2019-03-18T20:47:43.829Z,17.60
2019-03-18T20:50:14.587Z,12.13
2019-03-18T20:52:44.190Z,13.83
2019-03-18T20:55:13.815Z,15.60
2019-03-18T20:57:43.160Z,15.00
2019-03-18T21:00:13.981Z,11.83
2019-03-18T21:02:43.325Z,7.83
2019-03-18T21:05:12.683Z,9.20
2019-03-18T21:07:41.961Z,6.63
2019-03-18T21:10:11.826Z,10.60
2019-03-18T21:12:41.616Z,7.23
2019-03-18T21:15:11.114Z,5.47
2019-03-18T21:17:40.433Z,7.30
2019-03-18T21:20:12.098Z,6.77
2019-03-18T21:22:41.812Z,10.60
2019-03-18T21:25:11.008Z,5.60
2019-03-18T21:27:40.374Z,7.10
2019-03-18T21:30:10.714Z,7.70
2019-03-18T21:32:40.404Z,8.97
2019-03-18T21:35:10.054Z,3.97
2019-03-18T21:37:39.472Z,8.00
2019-03-18T21:40:09.715Z,7.60
2019-03-18T21:42:39.181Z,6.33
2019-03-18T21:45:11.628Z,8.00
2019-03-18T21:47:40.965Z,5.37
2019-03-18T21:50:11.284Z,7.07
2019-03-18T21:52:40.649Z,10.70
2019-03-18T21:55:10.099Z,5.67
2019-03-18T21:57:39.457Z,7.80
2019-03-18T22:00:09.572Z,7.10
2019-03-18T22:02:38.878Z,7.97
2019-03-18T22:05:08.189Z,6.97
2019-03-18T22:07:37.528Z,6.63
2019-03-18T22:10:07.525Z,9.10
2019-03-18T22:12:37.337Z,5.93
2019-03-18T22:15:08.042Z,7.20
2019-03-18T22:17:37.378Z,13.17
2019-03-18T22:20:08.946Z,12.63
2019-03-18T22:22:38.262Z,4.47
2019-03-18T22:25:07.980Z,6.43
2019-03-18T22:27:37.338Z,4.77
2019-03-18T22:30:07.163Z,7.37
2019-03-18T22:32:36.502Z,6.30
2019-03-18T22:35:06.934Z,15.40
2019-03-18T22:37:36.299Z,6.27
2019-03-18T22:40:08.070Z,13.23
2019-03-18T22:42:37.444Z,5.63
2019-03-18T22:45:07.308Z,7.77
2019-03-18T22:47:36.627Z,6.77
2019-03-18T22:50:06.828Z,9.23
2019-03-18T22:52:36.488Z,8.50
2019-03-18T22:55:08.818Z,7.07
2019-03-18T22:57:38.543Z,6.57
2019-03-18T23:00:16.972Z,16.23
2019-03-18T23:02:46.338Z,4.50
2019-03-18T23:05:15.982Z,4.20
2019-03-18T23:07:45.782Z,5.43
2019-03-18T23:10:14.974Z,7.37
2019-03-18T23:12:44.641Z,7.27
2019-03-18T23:15:14.261Z,5.33
2019-03-18T23:17:43.593Z,8.63
2019-03-18T23:20:13.597Z,6.37
2019-03-18T23:22:42.962Z,10.23
2019-03-18T23:25:12.363Z,8.80
2019-03-18T23:27:41.716Z,7.50
2019-03-18T23:30:11.152Z,8.10
2019-03-18T23:32:40.567Z,7.50
2019-03-18T23:35:09.975Z,6.10
2019-03-18T23:37:39.301Z,6.53
2019-03-18T23:40:08.680Z,8.83
2019-03-18T23:42:37.950Z,7.33
2019-03-18T23:45:07.477Z,7.20
2019-03-18T23:47:36.822Z,6.70
2019-03-18T23:50:06.336Z,12.73
2019-03-18T23:52:35.698Z,3.93
2019-03-18T23:55:17.815Z,6.50
2019-03-18T23:57:37.556Z,6.93
